Westbury, Virginia
Current Conditions -  °F | °C
As of 2:54 AM on Friday 24 Oct 2014 (Local Time) from KOFP Reporting Station
Clear Clear  
Wind Chill: 46°   Ceiling: Unl
Heat Index: 48°   Visibility: 10mi
Dew Point: 42°   Wind: 5mph
Humidity: 80%   Direction: 250°WSW
Pressure: 29.96"   Gusts: NA
Location:  37.5871°N, 77.5706°W
Report Text: KOFP 240654Z AUTO 25004KT 10SM CLR 09/06 A2996 RMK AO2 SLP146 T00890056
Loading
Personal Weather Stations






























Interactive Weather Map
Tropical Storm Tracking
New forecast layout! Learn more

10-Day Weather Forecast

Advertisements
Track Severe Weather on mobile